Decoded Metar for LTDA (HATAY AIRPORT in TURQUEY) (IATA:) | Meteo·Mobile Aviation Weather
aviador You're here:

LTDA Decoded Metar

HATAY AIRPORT in TURQUEY
Report Time2019-01-21 23:50:00
UTC Time2019-01-22 00:10:04
Flight Rules vfr VFR
Wind050° at 08 kt
W.Decomp.*RWY 04: 8.0 kt HW 0.8 kt RCW
W.Rank050° ranks 8
Current wind is above 050° avg. (6.6)
Visibility9999 m
Phenomena:N/A
Clouds:Scattered 100 Hf
Expected CloudBase > 1,600 ft AGL from Temp-Dew spread
CeilingNone
Temp06°C (ISA -8)
Dew Point02°C (76% RH)
AAT1.5°C
QNH1021 hPa
Density Alt-928 ft
Elevation267 ft
Report Wrong Elevation
Raw Report
METAR LTDA 212350Z 05008KT 9999 SCT100 06/02 Q1021 NOSIG=

Extra information for LTDA:More info

Metar Taf Metar & Taf Last 4 Metars F.Rules Stats Wind Profile Meteogram Temp Stats Airport Information Weather charts Add Link Nearby VenuesMetar ALERT Operation Metar Decoded Social comments